sensor_id;sensor_type;location;lat;lon;timestamp;P1;durP1;ratioP1;P2;durP2;ratioP2
67090;SDS011;54007;55.818;49.058;2023-05-10T09:34:57;4.35;;;1.60;;
67090;SDS011;54007;55.818;49.058;2023-05-10T09:37:30;5.25;;;1.80;;
67090;SDS011;54007;55.818;49.058;2023-05-10T09:39:55;4.92;;;1.80;;
67090;SDS011;54007;55.818;49.058;2023-05-10T09:42:21;4.35;;;1.50;;
67090;SDS011;54007;55.818;49.058;2023-05-10T09:44:47;5.20;;;1.60;;
67090;SDS011;54007;55.818;49.058;2023-05-10T09:47:16;5.62;;;1.25;;
67090;SDS011;54007;55.818;49.058;2023-05-10T09:49:39;4.27;;;1.60;;
67090;SDS011;54007;55.818;49.058;2023-05-10T09:52:05;5.15;;;1.25;;
67090;SDS011;54007;55.818;49.058;2023-05-10T09:54:31;4.83;;;1.70;;
67090;SDS011;54007;55.818;49.058;2023-05-10T09:56:57;4.07;;;1.70;;
67090;SDS011;54007;55.818;49.058;2023-05-10T09:59:24;5.12;;;1.52;;
67090;SDS011;54007;55.818;49.058;2023-05-10T10:01:51;7.30;;;1.95;;
67090;SDS011;54007;55.818;49.058;2023-05-10T10:04:17;4.55;;;1.65;;
67090;SDS011;54007;55.818;49.058;2023-05-10T10:06:43;5.72;;;1.60;;
67090;SDS011;54007;55.818;49.058;2023-05-10T10:09:09;4.08;;;1.60;;
67090;SDS011;54007;55.818;49.058;2023-05-10T10:11:35;4.00;;;1.80;;
67090;SDS011;54007;55.818;49.058;2023-05-10T10:14:00;4.33;;;1.50;;
67090;SDS011;54007;55.818;49.058;2023-05-10T10:16:26;4.75;;;1.50;;
67090;SDS011;54007;55.818;49.058;2023-05-10T10:18:52;4.50;;;1.47;;
67090;SDS011;54007;55.818;49.058;2023-05-10T10:21:18;6.33;;;1.67;;
67090;SDS011;54007;55.818;49.058;2023-05-10T10:23:44;5.73;;;1.63;;
67090;SDS011;54007;55.818;49.058;2023-05-10T10:26:09;4.10;;;1.30;;
67090;SDS011;54007;55.818;49.058;2023-05-10T10:28:39;5.10;;;2.17;;
67090;SDS011;54007;55.818;49.058;2023-05-10T10:31:03;5.40;;;1.60;;
67090;SDS011;54007;55.818;49.058;2023-05-10T10:35:53;4.92;;;1.70;;
67090;SDS011;54007;55.818;49.058;2023-05-10T10:38:19;4.87;;;1.70;;
67090;SDS011;54007;55.818;49.058;2023-05-10T10:40:45;4.08;;;1.67;;
67090;SDS011;54007;55.818;49.058;2023-05-10T10:43:23;4.12;;;1.60;;
67090;SDS011;54007;55.818;49.058;2023-05-10T10:48:33;4.40;;;1.40;;
67090;SDS011;54007;55.818;49.058;2023-05-10T10:51:05;5.92;;;1.70;;
67090;SDS011;54007;55.818;49.058;2023-05-10T10:53:31;4.45;;;1.52;;
67090;SDS011;54007;55.818;49.058;2023-05-10T10:56:10;4.47;;;1.40;;
67090;SDS011;54007;55.818;49.058;2023-05-10T10:58:36;5.05;;;1.87;;
67090;SDS011;54007;55.818;49.058;2023-05-10T11:01:13;5.92;;;1.77;;
67090;SDS011;54007;55.818;49.058;2023-05-10T11:03:38;5.47;;;1.60;;
67090;SDS011;54007;55.818;49.058;2023-05-10T11:06:04;4.05;;;1.50;;
67090;SDS011;54007;55.818;49.058;2023-05-10T11:08:31;4.35;;;1.70;;
67090;SDS011;54007;55.818;49.058;2023-05-10T12:27:32;4.20;;;1.37;;
67090;SDS011;54007;55.818;49.058;2023-05-10T12:30:05;4.67;;;1.60;;
67090;SDS011;54007;55.818;49.058;2023-05-10T12:32:40;5.22;;;1.50;;
67090;SDS011;54007;55.818;49.058;2023-05-10T12:35:03;4.53;;;1.62;;
67090;SDS011;54007;55.818;49.058;2023-05-10T12:37:28;4.47;;;1.67;;
67090;SDS011;54007;55.818;49.058;2023-05-10T12:39:54;5.12;;;1.70;;
67090;SDS011;54007;55.818;49.058;2023-05-10T12:42:20;5.08;;;1.70;;
67090;SDS011;54007;55.818;49.058;2023-05-10T12:44:46;5.30;;;1.60;;
67090;SDS011;54007;55.818;49.058;2023-05-10T12:47:12;7.78;;;1.65;;
67090;SDS011;54007;55.818;49.058;2023-05-10T12:49:38;4.00;;;1.50;;
67090;SDS011;54007;55.818;49.058;2023-05-10T12:52:03;5.93;;;2.00;;
67090;SDS011;54007;55.818;49.058;2023-05-10T12:54:29;4.15;;;1.52;;
67090;SDS011;54007;55.818;49.058;2023-05-10T12:56:55;4.55;;;1.60;;
67090;SDS011;54007;55.818;49.058;2023-05-10T12:59:21;5.57;;;1.77;;
67090;SDS011;54007;55.818;49.058;2023-05-10T13:01:47;6.50;;;1.65;;
67090;SDS011;54007;55.818;49.058;2023-05-10T13:04:13;4.60;;;1.70;;
67090;SDS011;54007;55.818;49.058;2023-05-10T13:06:38;4.92;;;1.45;;
67090;SDS011;54007;55.818;49.058;2023-05-10T13:09:04;4.80;;;1.50;;
67090;SDS011;54007;55.818;49.058;2023-05-10T13:11:30;6.37;;;1.90;;
67090;SDS011;54007;55.818;49.058;2023-05-10T13:13:56;6.30;;;1.70;;
67090;SDS011;54007;55.818;49.058;2023-05-10T13:16:22;6.93;;;1.70;;
67090;SDS011;54007;55.818;49.058;2023-05-10T13:18:48;3.65;;;1.55;;
67090;SDS011;54007;55.818;49.058;2023-05-10T13:21:13;4.33;;;1.42;;
67090;SDS011;54007;55.818;49.058;2023-05-10T13:23:39;3.80;;;1.33;;
67090;SDS011;54007;55.818;49.058;2023-05-10T13:26:05;4.47;;;1.60;;
67090;SDS011;54007;55.818;49.058;2023-05-10T13:28:31;7.15;;;1.70;;
67090;SDS011;54007;55.818;49.058;2023-05-10T13:30:57;5.60;;;1.50;;
67090;SDS011;54007;55.818;49.058;2023-05-10T13:33:23;4.90;;;1.62;;
67090;SDS011;54007;55.818;49.058;2023-05-10T13:35:49;4.93;;;1.60;;
67090;SDS011;54007;55.818;49.058;2023-05-10T13:38:14;4.17;;;1.55;;
67090;SDS011;54007;55.818;49.058;2023-05-10T13:40:40;4.75;;;1.67;;
67090;SDS011;54007;55.818;49.058;2023-05-10T13:43:06;5.08;;;1.40;;
67090;SDS011;54007;55.818;49.058;2023-05-10T13:45:36;4.80;;;1.40;;
67090;SDS011;54007;55.818;49.058;2023-05-10T13:48:08;6.25;;;1.45;;
67090;SDS011;54007;55.818;49.058;2023-05-10T13:50:34;4.12;;;1.50;;
67090;SDS011;54007;55.818;49.058;2023-05-10T13:53:00;6.10;;;1.60;;
67090;SDS011;54007;55.818;49.058;2023-05-10T13:55:26;4.20;;;1.70;;
67090;SDS011;54007;55.818;49.058;2023-05-10T13:57:51;5.50;;;2.30;;
67090;SDS011;54007;55.818;49.058;2023-05-10T14:00:17;4.17;;;1.90;;
67090;SDS011;54007;55.818;49.058;2023-05-10T14:02:43;5.93;;;1.50;;
67090;SDS011;54007;55.818;49.058;2023-05-10T14:05:09;5.40;;;1.65;;
67090;SDS011;54007;55.818;49.058;2023-05-10T14:07:35;6.93;;;2.03;;
67090;SDS011;54007;55.818;49.058;2023-05-10T14:10:01;5.75;;;1.62;;
67090;SDS011;54007;55.818;49.058;2023-05-10T14:12:27;8.45;;;1.90;;
67090;SDS011;54007;55.818;49.058;2023-05-10T14:14:52;4.90;;;1.43;;
67090;SDS011;54007;55.818;49.058;2023-05-10T14:17:18;5.25;;;1.92;;
67090;SDS011;54007;55.818;49.058;2023-05-10T14:19:44;5.17;;;1.50;;
67090;SDS011;54007;55.818;49.058;2023-05-10T14:22:10;4.83;;;1.40;;
67090;SDS011;54007;55.818;49.058;2023-05-10T14:24:37;8.33;;;1.85;;
67090;SDS011;54007;55.818;49.058;2023-05-10T14:27:01;4.90;;;1.40;;
67090;SDS011;54007;55.818;49.058;2023-05-10T14:29:27;3.60;;;1.32;;
67090;SDS011;54007;55.818;49.058;2023-05-10T14:31:53;4.00;;;1.50;;
67090;SDS011;54007;55.818;49.058;2023-05-10T14:34:19;10.45;;;1.67;;
67090;SDS011;54007;55.818;49.058;2023-05-10T14:36:45;4.28;;;1.60;;
67090;SDS011;54007;55.818;49.058;2023-05-10T14:39:11;7.73;;;1.90;;
67090;SDS011;54007;55.818;49.058;2023-05-10T14:41:36;3.40;;;1.40;;
67090;SDS011;54007;55.818;49.058;2023-05-10T14:44:02;4.33;;;1.80;;
67090;SDS011;54007;55.818;49.058;2023-05-10T14:46:28;5.87;;;1.70;;
67090;SDS011;54007;55.818;49.058;2023-05-10T14:48:54;6.92;;;1.57;;
67090;SDS011;54007;55.818;49.058;2023-05-10T14:51:20;6.13;;;1.63;;
67090;SDS011;54007;55.818;49.058;2023-05-10T14:53:46;4.12;;;1.62;;
67090;SDS011;54007;55.818;49.058;2023-05-10T14:56:11;5.10;;;1.87;;
67090;SDS011;54007;55.818;49.058;2023-05-10T14:58:37;6.50;;;1.72;;
67090;SDS011;54007;55.818;49.058;2023-05-10T15:01:03;4.95;;;1.70;;
67090;SDS011;54007;55.818;49.058;2023-05-10T15:03:33;5.40;;;1.53;;
67090;SDS011;54007;55.818;49.058;2023-05-10T15:06:05;4.53;;;1.67;;
67090;SDS011;54007;55.818;49.058;2023-05-10T15:08:31;5.03;;;1.70;;
67090;SDS011;54007;55.818;49.058;2023-05-10T15:10:57;5.70;;;1.73;;
67090;SDS011;54007;55.818;49.058;2023-05-10T15:13:23;6.28;;;1.65;;
67090;SDS011;54007;55.818;49.058;2023-05-10T15:15:48;7.83;;;2.00;;
67090;SDS011;54007;55.818;49.058;2023-05-10T15:18:14;5.30;;;1.75;;
67090;SDS011;54007;55.818;49.058;2023-05-10T15:20:40;5.65;;;2.10;;
67090;SDS011;54007;55.818;49.058;2023-05-10T15:23:06;6.47;;;2.40;;
67090;SDS011;54007;55.818;49.058;2023-05-10T15:25:32;7.10;;;2.62;;
67090;SDS011;54007;55.818;49.058;2023-05-10T15:27:58;6.40;;;2.30;;
67090;SDS011;54007;55.818;49.058;2023-05-10T15:30:23;5.80;;;1.90;;
67090;SDS011;54007;55.818;49.058;2023-05-10T15:32:49;8.60;;;2.30;;
67090;SDS011;54007;55.818;49.058;2023-05-10T15:35:15;6.23;;;2.03;;
67090;SDS011;54007;55.818;49.058;2023-05-10T15:37:41;8.00;;;2.30;;
67090;SDS011;54007;55.818;49.058;2023-05-10T15:40:07;5.72;;;1.85;;
67090;SDS011;54007;55.818;49.058;2023-05-10T15:42:33;7.03;;;2.40;;
67090;SDS011;54007;55.818;49.058;2023-05-10T15:44:59;5.50;;;2.10;;
67090;SDS011;54007;55.818;49.058;2023-05-10T15:47:25;6.12;;;1.92;;
67090;SDS011;54007;55.818;49.058;2023-05-10T15:49:50;9.10;;;2.35;;
67090;SDS011;54007;55.818;49.058;2023-05-10T15:52:16;6.33;;;2.02;;
67090;SDS011;54007;55.818;49.058;2023-05-10T15:54:42;7.33;;;2.13;;
67090;SDS011;54007;55.818;49.058;2023-05-10T15:57:08;7.75;;;2.25;;
67090;SDS011;54007;55.818;49.058;2023-05-10T15:59:34;4.55;;;1.82;;
67090;SDS011;54007;55.818;49.058;2023-05-10T16:01:59;7.83;;;2.40;;
67090;SDS011;54007;55.818;49.058;2023-05-10T16:04:25;8.03;;;2.40;;
67090;SDS011;54007;55.818;49.058;2023-05-10T16:06:51;6.10;;;2.40;;
67090;SDS011;54007;55.818;49.058;2023-05-10T16:09:17;8.15;;;2.60;;
67090;SDS011;54007;55.818;49.058;2023-05-10T16:11:43;9.90;;;2.35;;
67090;SDS011;54007;55.818;49.058;2023-05-10T16:14:09;9.83;;;3.67;;
67090;SDS011;54007;55.818;49.058;2023-05-10T16:16:34;9.85;;;3.90;;
67090;SDS011;54007;55.818;49.058;2023-05-10T16:19:00;11.13;;;3.07;;
67090;SDS011;54007;55.818;49.058;2023-05-10T16:21:30;10.25;;;3.50;;
67090;SDS011;54007;55.818;49.058;2023-05-10T16:24:02;12.18;;;3.25;;
67090;SDS011;54007;55.818;49.058;2023-05-10T16:26:28;16.80;;;3.70;;
67090;SDS011;54007;55.818;49.058;2023-05-10T16:28:54;12.63;;;3.30;;
67090;SDS011;54007;55.818;49.058;2023-05-10T16:31:20;13.45;;;3.50;;
67090;SDS011;54007;55.818;49.058;2023-05-10T16:33:45;17.37;;;5.47;;
67090;SDS011;54007;55.818;49.058;2023-05-10T16:36:11;13.90;;;3.85;;
67090;SDS011;54007;55.818;49.058;2023-05-10T16:38:37;13.73;;;4.07;;
67090;SDS011;54007;55.818;49.058;2023-05-10T16:41:03;13.80;;;3.52;;
67090;SDS011;54007;55.818;49.058;2023-05-10T16:43:29;14.18;;;3.85;;
67090;SDS011;54007;55.818;49.058;2023-05-10T16:45:55;14.60;;;3.60;;
67090;SDS011;54007;55.818;49.058;2023-05-10T16:48:20;18.30;;;5.00;;
67090;SDS011;54007;55.818;49.058;2023-05-10T16:50:46;22.40;;;6.90;;
67090;SDS011;54007;55.818;49.058;2023-05-10T16:53:12;27.80;;;9.60;;
67090;SDS011;54007;55.818;49.058;2023-05-10T16:55:38;31.35;;;10.30;;
67090;SDS011;54007;55.818;49.058;2023-05-10T16:58:04;25.45;;;10.60;;
67090;SDS011;54007;55.818;49.058;2023-05-10T17:00:30;28.92;;;9.93;;
67090;SDS011;54007;55.818;49.058;2023-05-10T17:02:55;30.73;;;11.77;;
67090;SDS011;54007;55.818;49.058;2023-05-10T17:05:21;41.33;;;11.97;;
67090;SDS011;54007;55.818;49.058;2023-05-10T17:07:47;42.85;;;12.37;;
67090;SDS011;54007;55.818;49.058;2023-05-10T17:10:13;42.00;;;12.13;;
67090;SDS011;54007;55.818;49.058;2023-05-10T17:12:39;35.35;;;10.25;;
67090;SDS011;54007;55.818;49.058;2023-05-10T17:15:05;31.57;;;8.30;;
67090;SDS011;54007;55.818;49.058;2023-05-10T17:17:31;27.58;;;6.95;;
67090;SDS011;54007;55.818;49.058;2023-05-10T17:19:57;29.70;;;10.32;;
67090;SDS011;54007;55.818;49.058;2023-05-10T17:22:23;40.70;;;10.90;;
67090;SDS011;54007;55.818;49.058;2023-05-10T17:24:48;35.83;;;9.35;;
67090;SDS011;54007;55.818;49.058;2023-05-10T17:27:14;38.33;;;8.83;;
67090;SDS011;54007;55.818;49.058;2023-05-10T17:29:40;47.33;;;7.60;;
67090;SDS011;54007;55.818;49.058;2023-05-10T17:32:06;29.98;;;7.33;;
67090;SDS011;54007;55.818;49.058;2023-05-10T17:34:32;29.83;;;7.67;;
67090;SDS011;54007;55.818;49.058;2023-05-10T17:36:57;26.62;;;6.50;;
67090;SDS011;54007;55.818;49.058;2023-05-10T17:39:23;23.52;;;6.25;;
67090;SDS011;54007;55.818;49.058;2023-05-10T17:41:55;25.07;;;6.60;;
67090;SDS011;54007;55.818;49.058;2023-05-10T17:44:21;27.75;;;6.78;;
67090;SDS011;54007;55.818;49.058;2023-05-10T17:46:47;26.80;;;6.50;;
67090;SDS011;54007;55.818;49.058;2023-05-10T17:49:13;37.73;;;7.40;;
67090;SDS011;54007;55.818;49.058;2023-05-10T17:51:39;44.83;;;8.18;;
67090;SDS011;54007;55.818;49.058;2023-05-10T17:54:07;51.13;;;9.50;;
67090;SDS011;54007;55.818;49.058;2023-05-10T17:56:31;41.68;;;8.70;;
67090;SDS011;54007;55.818;49.058;2023-05-10T17:58:57;37.10;;;8.10;;
67090;SDS011;54007;55.818;49.058;2023-05-10T18:01:22;42.17;;;8.50;;
67090;SDS011;54007;55.818;49.058;2023-05-10T18:03:48;39.92;;;8.98;;
67090;SDS011;54007;55.818;49.058;2023-05-10T18:06:14;50.38;;;9.85;;
67090;SDS011;54007;55.818;49.058;2023-05-10T18:08:40;37.40;;;7.97;;
67090;SDS011;54007;55.818;49.058;2023-05-10T18:11:06;32.88;;;7.78;;
67090;SDS011;54007;55.818;49.058;2023-05-10T18:13:32;33.63;;;8.08;;
67090;SDS011;54007;55.818;49.058;2023-05-10T18:15:57;35.03;;;7.17;;
67090;SDS011;54007;55.818;49.058;2023-05-10T18:18:23;40.43;;;8.60;;
67090;SDS011;54007;55.818;49.058;2023-05-10T18:20:49;40.13;;;8.23;;
67090;SDS011;54007;55.818;49.058;2023-05-10T18:23:15;38.95;;;9.15;;
67090;SDS011;54007;55.818;49.058;2023-05-10T18:25:41;45.98;;;9.23;;
67090;SDS011;54007;55.818;49.058;2023-05-10T18:28:07;44.97;;;9.40;;
67090;SDS011;54007;55.818;49.058;2023-05-10T18:30:33;36.13;;;8.73;;
67090;SDS011;54007;55.818;49.058;2023-05-10T18:32:58;41.28;;;8.20;;
67090;SDS011;54007;55.818;49.058;2023-05-10T18:35:24;35.17;;;8.75;;
67090;SDS011;54007;55.818;49.058;2023-05-10T18:37:50;41.20;;;7.87;;
67090;SDS011;54007;55.818;49.058;2023-05-10T18:40:16;38.63;;;8.90;;
67090;SDS011;54007;55.818;49.058;2023-05-10T18:42:42;49.30;;;8.65;;
67090;SDS011;54007;55.818;49.058;2023-05-10T18:45:08;39.67;;;8.63;;
